Terminal Aerodrome Forecast
Issued by NWS St Louis, MO

Home | Current Version | Previous Version | Text Only | Print | Product List | Glossary On
Versions: 1 2 3 4 5 6 7 8 9 10 11 12 13 14 15 16 17 18 19 20 21 22 23 24
000
FTUS43 KLSX 050538
TAFCOU
TAF
KCOU 050538Z 0506/0606 23004KT P6SM SKC
      TEMPO 0506/0509 4SM BR
     FM050900 VRB03KT 1 1/2SM BR FEW003
     FM051400 16006KT 4SM BR SCT010
     FM051500 16006KT P6SM SCT250=

USA.gov is the U.S. government's official web portal to all federal, state and local government web resources and services.